Jolyn — PJWG — position and weather

sailwx.info

Track history (hours):
 
Tides and Currents Weather Stations Pressure Air Temp Water Temp Dewpoint Dewpoint Depression Visibility Wind Speed Wind Dir Waves Ship Positions

Jolyn

Last reported at 2017-Mar-23 15:07 UTC. Time now 2017-Mar-27 00:48 UTC.
Position N 49°46' W 003°33'.

Length 89 m; draft 5.3 m.

Type: Cargo ship. MMSI: 306813000.

Date/timePositionNaut miles runAvg speedWind from/ knotsBaromVisibWave heightAir tempDewpointWater temp
2017-Mar-23 15:07N 49°46' W 003°33'610.5
2017-Mar-23 14:33N 49°49' W 003°25'1110.6
2017-Mar-23 13:33N 49°54' W 003°10'1111.0
2017-Mar-23 12:33N 49°59' W 002°56'3712.3
2017-Mar-23 09:33N 50°09' W 002°00'1312.8
2017-Mar-23 08:33N 50°13' W 001°41'1312.0
2017-Mar-23 07:26N 50°16' W 001°21'4010.3
2017-Mar-23 03:33N 50°27' W 000°21'1110.5
2017-Mar-23 02:33N 50°30' W 000°05'1210.9
2017-Mar-23 01:30N 50°34' E 000°13'1111.4
2017-Mar-23 00:33N 50°37' E 000°29'1111.4
2017-Mar-22 23:33N 50°42' E 000°44'1111.4
2017-Mar-22 22:33N 50°49' E 000°59'1111.0
2017-Mar-22 21:33N 50°56' E 001°13'1010.2
2017-Mar-22 20:33N 51°03' E 001°24'9 9.4
2017-Mar-22 19:33N 51°09' E 001°36'9 9.4
2017-Mar-22 18:33N 51°15' E 001°47'1010.3
2017-Mar-22 17:33N 51°25' E 001°53'1111.4
2017-Mar-22 16:33N 51°33' E 002°05'8710.5
2017-Mar-22 08:19N 52°31' E 003°50'810.6
2017-Mar-22 07:33N 52°31' E 004°03'1010.5
2017-Mar-22 06:33N 52°30' E 004°20'10 9.7
2017-Mar-22 05:33N 52°28' E 004°36'0 0.2
2017-Mar-22 04:31N 52°28' E 004°36'0 0.0
2017-Mar-22 03:31N 52°28' E 004°36'0 0.0
2017-Mar-22 02:31N 52°28' E 004°36'0 0.0
2017-Mar-22 01:31N 52°28' E 004°36'0 0.0
2017-Mar-22 00:31N 52°28' E 004°36'0 0.0
2017-Mar-21 23:31N 52°28' E 004°36'0 0.0
2017-Mar-21 22:31N 52°28' E 004°36'0 0.0
2017-Mar-21 21:31N 52°28' E 004°36'0 0.0
2017-Mar-21 20:31N 52°28' E 004°36'0 0.0
2017-Mar-21 19:31N 52°28' E 004°36'0 0.0
2017-Mar-21 18:31N 52°28' E 004°36'0 0.0
2017-Mar-21 17:31N 52°28' E 004°36'0 0.0
2017-Mar-21 16:31N 52°28' E 004°36'0 0.0
2017-Mar-21 15:31N 52°28' E 004°36'0 0.0
2017-Mar-21 14:28N 52°28' E 004°36'0 0.0
2017-Mar-21 13:31N 52°28' E 004°36'0 0.0
2017-Mar-21 12:31N 52°28' E 004°36'0 0.0
2017-Mar-21 11:31N 52°28' E 004°36'2 2.0
2017-Mar-21 10:34N 52°28' E 004°33'1111.4
2017-Mar-21 09:33N 52°29' E 004°15'10 9.6
2017-Mar-21 08:33N 52°36' E 004°05'10 9.5
2017-Mar-21 07:34N 52°44' E 004°15'5 5.5
2017-Mar-21 06:33N 52°39' E 004°11'2 1.8
2017-Mar-21 05:33N 52°37' E 004°10'2 1.6
2017-Mar-21 04:33N 52°39' E 004°11'2 2.3
2017-Mar-21 03:33N 52°41' E 004°13'3 2.9
2017-Mar-21 02:33N 52°43' E 004°15'4 4.0
2017-Mar-21 01:33N 52°41' E 004°09'1 1.2
2017-Mar-21 00:31N 52°40' E 004°09'2 2.4
2017-Mar-20 23:33N 52°41' E 004°13'2 2.5
2017-Mar-20 22:33N 52°43' E 004°14'2 1.8
2017-Mar-20 21:33N 52°43' E 004°11'5 4.6
2017-Mar-20 20:33N 52°39' E 004°06'3 2.6
2017-Mar-20 19:33N 52°41' E 004°10'2 1.9
2017-Mar-20 18:33N 52°42' E 004°12'3 3.0
2017-Mar-20 17:33N 52°39' E 004°11'5 5.3
2017-Mar-20 16:33N 52°34' E 004°10'3 3.0
2017-Mar-20 15:33N 52°32' E 004°14'0 0.3
2017-Mar-20 14:33N 52°32' E 004°13'1 0.5
2017-Mar-20 13:32N 52°32' E 004°14'0 0.2
2017-Mar-20 12:32N 52°32' E 004°14'3 3.4
2017-Mar-20 11:33N 52°34' E 004°10'7 6.9
2017-Mar-20 10:33N 52°40' E 004°03'104 7.9
2017-Mar-19 21:20N 53°37' E 006°28'8 9.8
2017-Mar-19 20:33N 53°34' E 006°40'10 9.7
2017-Mar-19 19:33N 53°28' E 006°52'1010.1
2017-Mar-19 18:33N 53°19' E 007°01'3 2.6
2017-Mar-19 17:31N 53°20' E 006°56'0 0.0
2017-Mar-19 16:31N 53°20' E 006°56'0 0.0
2017-Mar-19 15:31N 53°20' E 006°56'0 0.0
2017-Mar-19 14:31N 53°20' E 006°56'0 0.0
2017-Mar-19 13:31N 53°20' E 006°56'0 0.0
2017-Mar-19 12:31N 53°20' E 006°56'0 0.0
2017-Mar-19 11:31N 53°20' E 006°56'0 0.0
2017-Mar-19 10:31N 53°20' E 006°56'0 0.0
2017-Mar-19 09:31N 53°20' E 006°56'0 0.0
2017-Mar-19 08:31N 53°20' E 006°56'0 0.0
2017-Mar-19 07:31N 53°20' E 006°56'0 0.0
2017-Mar-19 06:31N 53°20' E 006°56'0 0.0
2017-Mar-19 05:31N 53°20' E 006°56'0 0.0
2017-Mar-19 04:31N 53°20' E 006°56'0 0.0
2017-Mar-19 03:31N 53°20' E 006°56'0 0.0
2017-Mar-19 02:28N 53°20' E 006°56'0 0.0
2017-Mar-19 01:31N 53°20' E 006°56'0 0.0
2017-Mar-19 00:31N 53°20' E 006°56'0 0.0
2017-Mar-18 23:31N 53°20' E 006°56'0 0.0
2017-Mar-18 22:31N 53°20' E 006°56'0 0.0
2017-Mar-18 21:31N 53°20' E 006°56'0 0.0
2017-Mar-18 20:31N 53°20' E 006°56'0 0.0
2017-Mar-18 19:31N 53°20' E 006°56'0 0.0
2017-Mar-18 18:31N 53°20' E 006°56'0 0.0
2017-Mar-18 17:31N 53°20' E 006°56'0 0.0
2017-Mar-18 16:31N 53°20' E 006°56'0 0.0
2017-Mar-18 15:31N 53°20' E 006°56'0 0.0
2017-Mar-18 14:31N 53°20' E 006°56'0 0.0
2017-Mar-18 13:31N 53°20' E 006°56'0 0.0
2017-Mar-18 12:31N 53°20' E 006°56'0 0.0
2017-Mar-18 11:31N 53°20' E 006°56'0 0.0
2017-Mar-18 10:31N 53°20' E 006°56'0 0.0
2017-Mar-18 09:31N 53°20' E 006°56'0 0.0
2017-Mar-18 08:31N 53°20' E 006°56'0 0.0
2017-Mar-18 07:31N 53°20' E 006°56'0 0.0
2017-Mar-18 06:31N 53°20' E 006°56'0 0.0
2017-Mar-18 05:28N 53°20' E 006°56'0 0.0
2017-Mar-18 04:31N 53°20' E 006°56'0 0.0
2017-Mar-18 03:31N 53°20' E 006°56'0 0.0
2017-Mar-18 02:31N 53°20' E 006°56'0 0.0
2017-Mar-18 01:31N 53°20' E 006°56'0 0.0
2017-Mar-18 00:31N 53°20' E 006°56'0 0.0
2017-Mar-17 23:31N 53°20' E 006°56'0 0.0
2017-Mar-17 22:31N 53°20' E 006°56'0 0.0
2017-Mar-17 21:31N 53°20' E 006°56'0 0.0
2017-Mar-17 20:31N 53°20' E 006°56'0 0.0
2017-Mar-17 19:31N 53°20' E 006°56'0 0.0
2017-Mar-17 18:31N 53°20' E 006°56'0 0.0
2017-Mar-17 17:33N 53°20' E 006°56'3 2.6
2017-Mar-17 16:33N 53°22' E 006°59'8 8.4
2017-Mar-17 15:34N 53°29' E 006°50'9 9.1
2017-Mar-17 14:31N 53°35' E 006°38'87 9.6
2017-Mar-17 05:28N 53°02' E 004°24'1111.4
2017-Mar-17 04:32N 52°53' E 004°16'1111.1
2017-Mar-17 03:32N 52°44' E 004°05'1210.7
2017-Mar-17 02:23N 52°35' E 003°51'8210.4
2017-Mar-16 18:31N 51°34' E 002°22'1212.3
2017-Mar-16 17:33N 51°25' E 002°11'1212.0
2017-Mar-16 16:33N 51°14' E 002°04'1313.4
2017-Mar-16 15:33N 51°06' E 001°46'1514.6
2017-Mar-16 14:33N 50°56' E 001°30'6312.3
2017-Mar-16 09:27N 50°19' E 000°09'1112.1
2017-Mar-16 08:33N 50°16' W 000°08'1111.3
2017-Mar-16 07:33N 50°14' W 000°24'1010.2
2017-Mar-16 06:33N 50°11' W 000°40'9 9.1
2017-Mar-16 05:33N 50°09' W 000°53'8 8.1
2017-Mar-16 04:33N 50°07' W 001°06'8 7.7
2017-Mar-16 03:33N 50°05' W 001°17'8 8.0
2017-Mar-16 02:33N 50°03' W 001°29'9 9.4
2017-Mar-16 01:33N 50°00' W 001°43'1110.9
2017-Mar-16 00:33N 49°57' W 001°60'1312.5
2017-Mar-15 23:31N 49°55' W 002°20'1312.9
2017-Mar-15 22:30N 49°51' W 002°39'2412.4
2017-Mar-15 20:33N 49°49' W 003°16'1312.4
2017-Mar-15 19:30N 49°50' W 003°37'1212.3
2017-Mar-15 18:33N 49°50' W 003°55'1211.9
2017-Mar-15 17:33N 49°51' W 004°13'1111.4
2017-Mar-15 16:33N 49°51' W 004°31'1110.9
2017-Mar-15 15:33N 49°52' W 004°48'1310.3
2017-Mar-15 14:20N 49°52' W 005°07'8 9.2
2017-Mar-15 13:26N 49°52' W 005°20'9 9.1
2017-Mar-15 12:28N 49°53' W 005°33'9 9.8
2017-Mar-15 11:33N 49°53' W 005°47'10 9.6
2017-Mar-15 10:31N 49°55' W 006°02'1212.2
2017-Mar-15 09:31N 50°08' W 006°02'1211.6
2017-Mar-15 08:30N 50°19' W 006°02'1211.1
2017-Mar-15 07:26N 50°28' W 006°15'1010.9
2017-Mar-15 06:33N 50°35' W 006°26'3710.9
2017-Mar-15 03:09N 51°02' W 007°06'610.8
2017-Mar-15 02:33N 51°06' W 007°14'1210.7
2017-Mar-15 01:28N 51°14' W 007°28'1010.7
2017-Mar-15 00:30N 51°21' W 007°40'1010.7
2017-Mar-14 23:33N 51°27' W 007°52'1110.6
2017-Mar-14 22:33N 51°34' W 008°05'10 9.9
2017-Mar-14 21:33N 51°41' W 008°17'1010.1
2017-Mar-14 20:33N 51°51' W 008°16'  
Track history (hours):
 
Tides and Currents Weather Stations Pressure Air Temp Water Temp Dewpoint Dewpoint Depression Visibility Wind Speed Wind Dir Waves Ship Positions

Jolyn

Last reported at 2017-Mar-23 15:07 UTC. Time now 2017-Mar-27 00:48 UTC.
Position N 49°46' W 003°33'.

Length 89 m; draft 5.3 m.

Type: Cargo ship. MMSI: 306813000.

Date/timePositionNaut miles runAvg speedWind from/ knotsBaromVisibWave heightAir tempDewpointWater temp
2017-Mar-23 15:07N 49°46' W 003°33'610.5
2017-Mar-23 14:33N 49°49' W 003°25'1110.6
2017-Mar-23 13:33N 49°54' W 003°10'1111.0
2017-Mar-23 12:33N 49°59' W 002°56'3712.3
2017-Mar-23 09:33N 50°09' W 002°00'1312.8
2017-Mar-23 08:33N 50°13' W 001°41'1312.0
2017-Mar-23 07:26N 50°16' W 001°21'4010.3
2017-Mar-23 03:33N 50°27' W 000°21'1110.5
2017-Mar-23 02:33N 50°30' W 000°05'1210.9
2017-Mar-23 01:30N 50°34' E 000°13'1111.4
2017-Mar-23 00:33N 50°37' E 000°29'1111.4
2017-Mar-22 23:33N 50°42' E 000°44'1111.4
2017-Mar-22 22:33N 50°49' E 000°59'1111.0
2017-Mar-22 21:33N 50°56' E 001°13'1010.2
2017-Mar-22 20:33N 51°03' E 001°24'9 9.4
2017-Mar-22 19:33N 51°09' E 001°36'9 9.4
2017-Mar-22 18:33N 51°15' E 001°47'1010.3
2017-Mar-22 17:33N 51°25' E 001°53'1111.4
2017-Mar-22 16:33N 51°33' E 002°05'8710.5
2017-Mar-22 08:19N 52°31' E 003°50'810.6
2017-Mar-22 07:33N 52°31' E 004°03'1010.5
2017-Mar-22 06:33N 52°30' E 004°20'10 9.7
2017-Mar-22 05:33N 52°28' E 004°36'0 0.2
2017-Mar-22 04:31N 52°28' E 004°36'0 0.0
2017-Mar-22 03:31N 52°28' E 004°36'0 0.0
2017-Mar-22 02:31N 52°28' E 004°36'0 0.0
2017-Mar-22 01:31N 52°28' E 004°36'0 0.0
2017-Mar-22 00:31N 52°28' E 004°36'0 0.0
2017-Mar-21 23:31N 52°28' E 004°36'0 0.0
2017-Mar-21 22:31N 52°28' E 004°36'0 0.0
2017-Mar-21 21:31N 52°28' E 004°36'0 0.0
2017-Mar-21 20:31N 52°28' E 004°36'0 0.0
2017-Mar-21 19:31N 52°28' E 004°36'0 0.0
2017-Mar-21 18:31N 52°28' E 004°36'0 0.0
2017-Mar-21 17:31N 52°28' E 004°36'0 0.0
2017-Mar-21 16:31N 52°28' E 004°36'0 0.0
2017-Mar-21 15:31N 52°28' E 004°36'0 0.0
2017-Mar-21 14:28N 52°28' E 004°36'0 0.0
2017-Mar-21 13:31N 52°28' E 004°36'0 0.0
2017-Mar-21 12:31N 52°28' E 004°36'0 0.0
2017-Mar-21 11:31N 52°28' E 004°36'2 2.0
2017-Mar-21 10:34N 52°28' E 004°33'1111.4
2017-Mar-21 09:33N 52°29' E 004°15'10 9.6
2017-Mar-21 08:33N 52°36' E 004°05'10 9.5
2017-Mar-21 07:34N 52°44' E 004°15'5 5.5
2017-Mar-21 06:33N 52°39' E 004°11'2 1.8
2017-Mar-21 05:33N 52°37' E 004°10'2 1.6
2017-Mar-21 04:33N 52°39' E 004°11'2 2.3
2017-Mar-21 03:33N 52°41' E 004°13'3 2.9
2017-Mar-21 02:33N 52°43' E 004°15'4 4.0
2017-Mar-21 01:33N 52°41' E 004°09'1 1.2
2017-Mar-21 00:31N 52°40' E 004°09'2 2.4
2017-Mar-20 23:33N 52°41' E 004°13'2 2.5
2017-Mar-20 22:33N 52°43' E 004°14'2 1.8
2017-Mar-20 21:33N 52°43' E 004°11'5 4.6
2017-Mar-20 20:33N 52°39' E 004°06'3 2.6
2017-Mar-20 19:33N 52°41' E 004°10'2 1.9
2017-Mar-20 18:33N 52°42' E 004°12'3 3.0
2017-Mar-20 17:33N 52°39' E 004°11'5 5.3
2017-Mar-20 16:33N 52°34' E 004°10'3 3.0
2017-Mar-20 15:33N 52°32' E 004°14'0 0.3
2017-Mar-20 14:33N 52°32' E 004°13'1 0.5
2017-Mar-20 13:32N 52°32' E 004°14'0 0.2
2017-Mar-20 12:32N 52°32' E 004°14'3 3.4
2017-Mar-20 11:33N 52°34' E 004°10'7 6.9
2017-Mar-20 10:33N 52°40' E 004°03'104 7.9
2017-Mar-19 21:20N 53°37' E 006°28'8 9.8
2017-Mar-19 20:33N 53°34' E 006°40'10 9.7
2017-Mar-19 19:33N 53°28' E 006°52'1010.1
2017-Mar-19 18:33N 53°19' E 007°01'3 2.6
2017-Mar-19 17:31N 53°20' E 006°56'0 0.0
2017-Mar-19 16:31N 53°20' E 006°56'0 0.0
2017-Mar-19 15:31N 53°20' E 006°56'0 0.0
2017-Mar-19 14:31N 53°20' E 006°56'0 0.0
2017-Mar-19 13:31N 53°20' E 006°56'0 0.0
2017-Mar-19 12:31N 53°20' E 006°56'0 0.0
2017-Mar-19 11:31N 53°20' E 006°56'0 0.0
2017-Mar-19 10:31N 53°20' E 006°56'0 0.0
2017-Mar-19 09:31N 53°20' E 006°56'0 0.0
2017-Mar-19 08:31N 53°20' E 006°56'0 0.0
2017-Mar-19 07:31N 53°20' E 006°56'0 0.0
2017-Mar-19 06:31N 53°20' E 006°56'0 0.0
2017-Mar-19 05:31N 53°20' E 006°56'0 0.0
2017-Mar-19 04:31N 53°20' E 006°56'0 0.0
2017-Mar-19 03:31N 53°20' E 006°56'0 0.0
2017-Mar-19 02:28N 53°20' E 006°56'0 0.0
2017-Mar-19 01:31N 53°20' E 006°56'0 0.0
2017-Mar-19 00:31N 53°20' E 006°56'0 0.0
2017-Mar-18 23:31N 53°20' E 006°56'0 0.0
2017-Mar-18 22:31N 53°20' E 006°56'0 0.0
2017-Mar-18 21:31N 53°20' E 006°56'0 0.0
2017-Mar-18 20:31N 53°20' E 006°56'0 0.0
2017-Mar-18 19:31N 53°20' E 006°56'0 0.0
2017-Mar-18 18:31N 53°20' E 006°56'0 0.0
2017-Mar-18 17:31N 53°20' E 006°56'0 0.0
2017-Mar-18 16:31N 53°20' E 006°56'0 0.0
2017-Mar-18 15:31N 53°20' E 006°56'0 0.0
2017-Mar-18 14:31N 53°20' E 006°56'0 0.0
2017-Mar-18 13:31N 53°20' E 006°56'0 0.0
2017-Mar-18 12:31N 53°20' E 006°56'0 0.0
2017-Mar-18 11:31N 53°20' E 006°56'0 0.0
2017-Mar-18 10:31N 53°20' E 006°56'0 0.0
2017-Mar-18 09:31N 53°20' E 006°56'0 0.0
2017-Mar-18 08:31N 53°20' E 006°56'0 0.0
2017-Mar-18 07:31N 53°20' E 006°56'0 0.0
2017-Mar-18 06:31N 53°20' E 006°56'0 0.0
2017-Mar-18 05:28N 53°20' E 006°56'0 0.0
2017-Mar-18 04:31N 53°20' E 006°56'0 0.0
2017-Mar-18 03:31N 53°20' E 006°56'0 0.0
2017-Mar-18 02:31N 53°20' E 006°56'0 0.0
2017-Mar-18 01:31N 53°20' E 006°56'0 0.0
2017-Mar-18 00:31N 53°20' E 006°56'0 0.0
2017-Mar-17 23:31N 53°20' E 006°56'0 0.0
2017-Mar-17 22:31N 53°20' E 006°56'0 0.0
2017-Mar-17 21:31N 53°20' E 006°56'0 0.0
2017-Mar-17 20:31N 53°20' E 006°56'0 0.0
2017-Mar-17 19:31N 53°20' E 006°56'0 0.0
2017-Mar-17 18:31N 53°20' E 006°56'0 0.0
2017-Mar-17 17:33N 53°20' E 006°56'3 2.6
2017-Mar-17 16:33N 53°22' E 006°59'8 8.4
2017-Mar-17 15:34N 53°29' E 006°50'9 9.1
2017-Mar-17 14:31N 53°35' E 006°38'87 9.6
2017-Mar-17 05:28N 53°02' E 004°24'1111.4
2017-Mar-17 04:32N 52°53' E 004°16'1111.1
2017-Mar-17 03:32N 52°44' E 004°05'1210.7
2017-Mar-17 02:23N 52°35' E 003°51'8210.4
2017-Mar-16 18:31N 51°34' E 002°22'1212.3
2017-Mar-16 17:33N 51°25' E 002°11'1212.0
2017-Mar-16 16:33N 51°14' E 002°04'1313.4
2017-Mar-16 15:33N 51°06' E 001°46'1514.6
2017-Mar-16 14:33N 50°56' E 001°30'6312.3
2017-Mar-16 09:27N 50°19' E 000°09'1112.1
2017-Mar-16 08:33N 50°16' W 000°08'1111.3
2017-Mar-16 07:33N 50°14' W 000°24'1010.2
2017-Mar-16 06:33N 50°11' W 000°40'9 9.1
2017-Mar-16 05:33N 50°09' W 000°53'8 8.1
2017-Mar-16 04:33N 50°07' W 001°06'8 7.7
2017-Mar-16 03:33N 50°05' W 001°17'8 8.0
2017-Mar-16 02:33N 50°03' W 001°29'9 9.4
2017-Mar-16 01:33N 50°00' W 001°43'1110.9
2017-Mar-16 00:33N 49°57' W 001°60'1312.5
2017-Mar-15 23:31N 49°55' W 002°20'1312.9
2017-Mar-15 22:30N 49°51' W 002°39'2412.4
2017-Mar-15 20:33N 49°49' W 003°16'1312.4
2017-Mar-15 19:30N 49°50' W 003°37'1212.3
2017-Mar-15 18:33N 49°50' W 003°55'1211.9
2017-Mar-15 17:33N 49°51' W 004°13'1111.4
2017-Mar-15 16:33N 49°51' W 004°31'1110.9
2017-Mar-15 15:33N 49°52' W 004°48'1310.3
2017-Mar-15 14:20N 49°52' W 005°07'8 9.2
2017-Mar-15 13:26N 49°52' W 005°20'9 9.1
2017-Mar-15 12:28N 49°53' W 005°33'9 9.8
2017-Mar-15 11:33N 49°53' W 005°47'10 9.6
2017-Mar-15 10:31N 49°55' W 006°02'1212.2
2017-Mar-15 09:31N 50°08' W 006°02'1211.6
2017-Mar-15 08:30N 50°19' W 006°02'1211.1
2017-Mar-15 07:26N 50°28' W 006°15'1010.9
2017-Mar-15 06:33N 50°35' W 006°26'3710.9
2017-Mar-15 03:09N 51°02' W 007°06'610.8
2017-Mar-15 02:33N 51°06' W 007°14'1210.7
2017-Mar-15 01:28N 51°14' W 007°28'1010.7
2017-Mar-15 00:30N 51°21' W 007°40'1010.7
2017-Mar-14 23:33N 51°27' W 007°52'1110.6
2017-Mar-14 22:33N 51°34' W 008°05'10 9.9
2017-Mar-14 21:33N 51°41' W 008°17'1010.1
2017-Mar-14 20:33N 51°51' W 008°16'  

Dump ship's entire track history